sensor_id;sensor_type;location;lat;lon;timestamp;P1;durP1;ratioP1;P2;durP2;ratioP2
10872;SDS011;34586;53.616;10.032;2023-08-31T00:01:35;10.00;;;9.00;;
10872;SDS011;34586;53.616;10.032;2023-08-31T00:04:00;9.93;;;9.13;;
10872;SDS011;34586;53.616;10.032;2023-08-31T00:06:26;9.30;;;8.60;;
10872;SDS011;34586;53.616;10.032;2023-08-31T00:08:52;9.80;;;9.00;;
10872;SDS011;34586;53.616;10.032;2023-08-31T00:11:18;9.20;;;8.40;;
10872;SDS011;34586;53.616;10.032;2023-08-31T00:13:45;9.33;;;8.57;;
10872;SDS011;34586;53.616;10.032;2023-08-31T00:16:11;9.10;;;8.30;;
10872;SDS011;34586;53.616;10.032;2023-08-31T00:18:37;9.30;;;8.40;;
10872;SDS011;34586;53.616;10.032;2023-08-31T00:21:04;9.53;;;8.73;;
10872;SDS011;34586;53.616;10.032;2023-08-31T00:23:29;9.30;;;8.50;;
10872;SDS011;34586;53.616;10.032;2023-08-31T00:25:55;9.97;;;8.97;;
10872;SDS011;34586;53.616;10.032;2023-08-31T00:28:22;8.77;;;7.97;;
10872;SDS011;34586;53.616;10.032;2023-08-31T00:30:47;9.10;;;8.30;;
10872;SDS011;34586;53.616;10.032;2023-08-31T00:33:14;9.10;;;8.30;;
10872;SDS011;34586;53.616;10.032;2023-08-31T00:35:40;8.93;;;8.13;;
10872;SDS011;34586;53.616;10.032;2023-08-31T00:38:10;9.07;;;8.17;;
10872;SDS011;34586;53.616;10.032;2023-08-31T00:40:42;8.43;;;7.70;;
10872;SDS011;34586;53.616;10.032;2023-08-31T00:43:12;8.60;;;7.67;;
10872;SDS011;34586;53.616;10.032;2023-08-31T00:45:40;7.77;;;7.17;;
10872;SDS011;34586;53.616;10.032;2023-08-31T00:48:06;7.33;;;6.73;;
10872;SDS011;34586;53.616;10.032;2023-08-31T00:50:33;8.33;;;7.13;;
10872;SDS011;34586;53.616;10.032;2023-08-31T00:52:59;8.60;;;7.70;;
10872;SDS011;34586;53.616;10.032;2023-08-31T00:55:24;8.40;;;7.60;;
10872;SDS011;34586;53.616;10.032;2023-08-31T00:57:51;8.37;;;7.57;;
10872;SDS011;34586;53.616;10.032;2023-08-31T01:00:17;6.80;;;6.17;;
10872;SDS011;34586;53.616;10.032;2023-08-31T01:02:50;7.43;;;6.73;;
10872;SDS011;34586;53.616;10.032;2023-08-31T01:05:31;8.30;;;6.57;;
10872;SDS011;34586;53.616;10.032;2023-08-31T01:11:29;7.97;;;7.27;;
10872;SDS011;34586;53.616;10.032;2023-08-31T01:14:07;7.43;;;6.83;;
10872;SDS011;34586;53.616;10.032;2023-08-31T01:16:42;8.30;;;7.43;;
10872;SDS011;34586;53.616;10.032;2023-08-31T01:19:16;10.60;;;7.13;;
10872;SDS011;34586;53.616;10.032;2023-08-31T01:22:03;7.87;;;7.17;;
10872;SDS011;34586;53.616;10.032;2023-08-31T01:24:32;8.60;;;7.70;;
10872;SDS011;34586;53.616;10.032;2023-08-31T01:26:59;7.77;;;7.17;;
10872;SDS011;34586;53.616;10.032;2023-08-31T01:29:24;7.90;;;7.20;;
10872;SDS011;34586;53.616;10.032;2023-08-31T01:31:50;8.40;;;7.03;;
10872;SDS011;34586;53.616;10.032;2023-08-31T01:34:16;7.57;;;6.97;;
10872;SDS011;34586;53.616;10.032;2023-08-31T01:36:43;8.50;;;7.57;;
10872;SDS011;34586;53.616;10.032;2023-08-31T01:39:14;7.73;;;6.93;;
10872;SDS011;34586;53.616;10.032;2023-08-31T01:41:46;7.40;;;6.40;;
10872;SDS011;34586;53.616;10.032;2023-08-31T01:44:17;7.97;;;7.17;;
10872;SDS011;34586;53.616;10.032;2023-08-31T01:46:51;7.83;;;7.03;;
10872;SDS011;34586;53.616;10.032;2023-08-31T01:49:19;8.20;;;6.63;;
10872;SDS011;34586;53.616;10.032;2023-08-31T01:51:46;7.63;;;6.83;;
10872;SDS011;34586;53.616;10.032;2023-08-31T01:54:11;7.23;;;6.63;;
10872;SDS011;34586;53.616;10.032;2023-08-31T01:56:37;7.43;;;6.77;;
10872;SDS011;34586;53.616;10.032;2023-08-31T01:59:03;8.10;;;6.30;;
10872;SDS011;34586;53.616;10.032;2023-08-31T02:01:28;9.13;;;6.70;;
10872;SDS011;34586;53.616;10.032;2023-08-31T02:03:54;8.30;;;7.03;;
10872;SDS011;34586;53.616;10.032;2023-08-31T02:06:20;8.03;;;6.97;;
10872;SDS011;34586;53.616;10.032;2023-08-31T02:08:45;9.07;;;6.80;;
10872;SDS011;34586;53.616;10.032;2023-08-31T02:11:12;9.70;;;6.77;;
10872;SDS011;34586;53.616;10.032;2023-08-31T02:13:38;6.80;;;6.20;;
10872;SDS011;34586;53.616;10.032;2023-08-31T02:16:04;7.43;;;6.73;;
10872;SDS011;34586;53.616;10.032;2023-08-31T02:18:30;7.93;;;7.03;;
10872;SDS011;34586;53.616;10.032;2023-08-31T02:20:55;7.87;;;7.03;;
10872;SDS011;34586;53.616;10.032;2023-08-31T02:23:22;8.80;;;7.10;;
10872;SDS011;34586;53.616;10.032;2023-08-31T02:25:48;7.83;;;7.03;;
10872;SDS011;34586;53.616;10.032;2023-08-31T02:28:13;7.17;;;6.57;;
10872;SDS011;34586;53.616;10.032;2023-08-31T02:30:39;8.77;;;7.60;;
10872;SDS011;34586;53.616;10.032;2023-08-31T02:33:04;10.07;;;6.77;;
10872;SDS011;34586;53.616;10.032;2023-08-31T02:35:30;7.40;;;6.70;;
10872;SDS011;34586;53.616;10.032;2023-08-31T02:37:55;8.63;;;6.63;;
10872;SDS011;34586;53.616;10.032;2023-08-31T02:40:21;7.50;;;6.33;;
10872;SDS011;34586;53.616;10.032;2023-08-31T02:42:50;7.27;;;6.57;;
10872;SDS011;34586;53.616;10.032;2023-08-31T02:45:16;9.23;;;6.90;;
10872;SDS011;34586;53.616;10.032;2023-08-31T02:47:42;8.70;;;6.30;;
10872;SDS011;34586;53.616;10.032;2023-08-31T02:50:08;6.47;;;5.87;;
10872;SDS011;34586;53.616;10.032;2023-08-31T02:52:34;8.07;;;6.60;;
10872;SDS011;34586;53.616;10.032;2023-08-31T02:54:59;8.83;;;6.27;;
10872;SDS011;34586;53.616;10.032;2023-08-31T02:57:25;7.17;;;6.47;;
10872;SDS011;34586;53.616;10.032;2023-08-31T02:59:51;8.83;;;6.43;;
10872;SDS011;34586;53.616;10.032;2023-08-31T03:02:16;8.03;;;5.80;;
10872;SDS011;34586;53.616;10.032;2023-08-31T03:04:42;10.60;;;6.90;;
10872;SDS011;34586;53.616;10.032;2023-08-31T03:07:08;6.90;;;6.23;;
10872;SDS011;34586;53.616;10.032;2023-08-31T03:09:34;6.77;;;6.03;;
10872;SDS011;34586;53.616;10.032;2023-08-31T03:11:59;10.43;;;6.57;;
10872;SDS011;34586;53.616;10.032;2023-08-31T03:14:25;7.60;;;6.13;;
10872;SDS011;34586;53.616;10.032;2023-08-31T03:16:51;7.10;;;6.37;;
10872;SDS011;34586;53.616;10.032;2023-08-31T03:19:16;6.97;;;6.23;;
10872;SDS011;34586;53.616;10.032;2023-08-31T03:21:42;8.30;;;6.07;;
10872;SDS011;34586;53.616;10.032;2023-08-31T03:24:07;11.03;;;6.83;;
10872;SDS011;34586;53.616;10.032;2023-08-31T03:26:33;7.63;;;6.03;;
10872;SDS011;34586;53.616;10.032;2023-08-31T03:28:59;6.73;;;5.17;;
10872;SDS011;34586;53.616;10.032;2023-08-31T03:31:25;10.07;;;5.63;;
10872;SDS011;34586;53.616;10.032;2023-08-31T03:33:51;6.20;;;5.60;;
10872;SDS011;34586;53.616;10.032;2023-08-31T03:36:16;6.50;;;5.90;;
10872;SDS011;34586;53.616;10.032;2023-08-31T03:38:42;5.67;;;5.17;;
10872;SDS011;34586;53.616;10.032;2023-08-31T03:41:07;6.67;;;5.00;;
10872;SDS011;34586;53.616;10.032;2023-08-31T03:43:33;9.50;;;5.13;;
10872;SDS011;34586;53.616;10.032;2023-08-31T03:45:59;8.27;;;5.50;;
10872;SDS011;34586;53.616;10.032;2023-08-31T03:48:25;6.63;;;4.83;;
10872;SDS011;34586;53.616;10.032;2023-08-31T03:50:51;4.80;;;4.40;;
10872;SDS011;34586;53.616;10.032;2023-08-31T03:53:18;4.87;;;4.37;;
10872;SDS011;34586;53.616;10.032;2023-08-31T03:55:44;9.27;;;5.07;;
10872;SDS011;34586;53.616;10.032;2023-08-31T03:58:10;7.70;;;4.60;;
10872;SDS011;34586;53.616;10.032;2023-08-31T04:00:38;6.17;;;4.53;;
10872;SDS011;34586;53.616;10.032;2023-08-31T04:03:04;5.80;;;4.07;;
10872;SDS011;34586;53.616;10.032;2023-08-31T04:05:33;7.00;;;3.87;;
10872;SDS011;34586;53.616;10.032;2023-08-31T04:08:00;6.80;;;4.00;;
10872;SDS011;34586;53.616;10.032;2023-08-31T04:10:26;6.37;;;4.30;;
10872;SDS011;34586;53.616;10.032;2023-08-31T04:12:52;4.10;;;3.80;;
10872;SDS011;34586;53.616;10.032;2023-08-31T04:15:17;6.20;;;4.30;;
10872;SDS011;34586;53.616;10.032;2023-08-31T04:17:43;4.43;;;3.43;;
10872;SDS011;34586;53.616;10.032;2023-08-31T04:20:09;4.87;;;3.83;;
10872;SDS011;34586;53.616;10.032;2023-08-31T04:22:35;5.40;;;3.57;;
10872;SDS011;34586;53.616;10.032;2023-08-31T04:25:01;5.07;;;3.80;;
10872;SDS011;34586;53.616;10.032;2023-08-31T04:27:27;5.80;;;3.93;;
10872;SDS011;34586;53.616;10.032;2023-08-31T04:29:55;4.63;;;3.40;;
10872;SDS011;34586;53.616;10.032;2023-08-31T04:32:20;5.13;;;3.60;;
10872;SDS011;34586;53.616;10.032;2023-08-31T04:34:46;4.13;;;3.37;;
10872;SDS011;34586;53.616;10.032;2023-08-31T04:37:11;4.67;;;3.20;;
10872;SDS011;34586;53.616;10.032;2023-08-31T04:39:37;6.43;;;3.30;;
10872;SDS011;34586;53.616;10.032;2023-08-31T04:42:02;6.87;;;3.50;;
10872;SDS011;34586;53.616;10.032;2023-08-31T04:44:28;8.77;;;3.93;;
10872;SDS011;34586;53.616;10.032;2023-08-31T04:46:54;5.97;;;4.00;;
10872;SDS011;34586;53.616;10.032;2023-08-31T04:49:20;5.27;;;3.83;;
10872;SDS011;34586;53.616;10.032;2023-08-31T04:51:45;6.97;;;4.13;;
10872;SDS011;34586;53.616;10.032;2023-08-31T04:54:11;7.50;;;4.47;;
10872;SDS011;34586;53.616;10.032;2023-08-31T04:56:36;4.77;;;3.90;;
10872;SDS011;34586;53.616;10.032;2023-08-31T04:59:02;4.93;;;4.23;;
10872;SDS011;34586;53.616;10.032;2023-08-31T05:01:28;5.43;;;4.30;;
10872;SDS011;34586;53.616;10.032;2023-08-31T05:03:54;8.63;;;4.10;;
10872;SDS011;34586;53.616;10.032;2023-08-31T05:06:19;5.80;;;4.27;;
10872;SDS011;34586;53.616;10.032;2023-08-31T05:08:46;6.90;;;4.33;;
10872;SDS011;34586;53.616;10.032;2023-08-31T05:11:15;5.97;;;4.00;;
10872;SDS011;34586;53.616;10.032;2023-08-31T05:13:40;8.30;;;4.37;;
10872;SDS011;34586;53.616;10.032;2023-08-31T05:16:07;9.03;;;4.20;;
10872;SDS011;34586;53.616;10.032;2023-08-31T05:18:33;6.77;;;4.00;;
10872;SDS011;34586;53.616;10.032;2023-08-31T05:20:59;6.17;;;3.97;;
10872;SDS011;34586;53.616;10.032;2023-08-31T05:23:25;9.27;;;3.90;;
10872;SDS011;34586;53.616;10.032;2023-08-31T05:25:50;6.60;;;3.83;;
10872;SDS011;34586;53.616;10.032;2023-08-31T05:28:16;3.97;;;3.57;;
10872;SDS011;34586;53.616;10.032;2023-08-31T05:30:49;8.23;;;4.50;;
10872;SDS011;34586;53.616;10.032;2023-08-31T05:33:18;7.10;;;3.93;;
10872;SDS011;34586;53.616;10.032;2023-08-31T05:35:44;4.00;;;3.70;;
10872;SDS011;34586;53.616;10.032;2023-08-31T05:38:10;4.97;;;3.57;;
10872;SDS011;34586;53.616;10.032;2023-08-31T05:40:36;8.37;;;4.13;;
10872;SDS011;34586;53.616;10.032;2023-08-31T05:43:01;7.30;;;3.80;;
10872;SDS011;34586;53.616;10.032;2023-08-31T05:45:33;6.33;;;3.60;;
10872;SDS011;34586;53.616;10.032;2023-08-31T05:47:59;4.43;;;4.03;;
10872;SDS011;34586;53.616;10.032;2023-08-31T05:50:25;5.77;;;3.57;;
10872;SDS011;34586;53.616;10.032;2023-08-31T05:52:51;5.50;;;3.67;;
10872;SDS011;34586;53.616;10.032;2023-08-31T05:55:17;8.37;;;3.43;;
10872;SDS011;34586;53.616;10.032;2023-08-31T05:57:43;4.97;;;3.07;;
10872;SDS011;34586;53.616;10.032;2023-08-31T06:00:08;8.13;;;3.63;;
10872;SDS011;34586;53.616;10.032;2023-08-31T06:02:34;4.87;;;3.07;;
10872;SDS011;34586;53.616;10.032;2023-08-31T06:05:00;7.93;;;3.60;;
10872;SDS011;34586;53.616;10.032;2023-08-31T06:07:27;7.10;;;3.30;;
10872;SDS011;34586;53.616;10.032;2023-08-31T06:09:54;6.87;;;2.97;;
10872;SDS011;34586;53.616;10.032;2023-08-31T06:12:20;5.63;;;3.07;;
10872;SDS011;34586;53.616;10.032;2023-08-31T06:14:45;6.83;;;3.50;;
10872;SDS011;34586;53.616;10.032;2023-08-31T06:17:11;4.13;;;2.83;;
10872;SDS011;34586;53.616;10.032;2023-08-31T06:19:38;7.93;;;3.03;;
10872;SDS011;34586;53.616;10.032;2023-08-31T06:22:04;5.73;;;2.73;;
10872;SDS011;34586;53.616;10.032;2023-08-31T06:24:29;5.17;;;3.03;;
10872;SDS011;34586;53.616;10.032;2023-08-31T06:26:55;5.20;;;3.00;;
10872;SDS011;34586;53.616;10.032;2023-08-31T06:29:21;5.97;;;2.60;;
10872;SDS011;34586;53.616;10.032;2023-08-31T06:31:47;5.07;;;3.00;;
10872;SDS011;34586;53.616;10.032;2023-08-31T06:34:13;9.30;;;3.13;;
10872;SDS011;34586;53.616;10.032;2023-08-31T06:36:38;6.80;;;2.70;;
10872;SDS011;34586;53.616;10.032;2023-08-31T06:39:05;4.93;;;2.37;;
10872;SDS011;34586;53.616;10.032;2023-08-31T06:41:31;5.07;;;2.30;;
10872;SDS011;34586;53.616;10.032;2023-08-31T06:43:57;4.63;;;2.73;;
10872;SDS011;34586;53.616;10.032;2023-08-31T06:46:22;5.07;;;2.50;;
10872;SDS011;34586;53.616;10.032;2023-08-31T06:48:48;5.33;;;2.50;;
10872;SDS011;34586;53.616;10.032;2023-08-31T06:51:14;4.00;;;2.23;;
10872;SDS011;34586;53.616;10.032;2023-08-31T06:53:41;2.97;;;2.33;;
10872;SDS011;34586;53.616;10.032;2023-08-31T06:56:08;4.87;;;2.30;;
10872;SDS011;34586;53.616;10.032;2023-08-31T06:58:34;4.03;;;2.40;;
10872;SDS011;34586;53.616;10.032;2023-08-31T07:00:59;4.63;;;2.57;;
10872;SDS011;34586;53.616;10.032;2023-08-31T07:03:26;4.63;;;2.70;;
10872;SDS011;34586;53.616;10.032;2023-08-31T07:05:51;4.53;;;2.37;;
10872;SDS011;34586;53.616;10.032;2023-08-31T07:08:17;3.30;;;1.80;;
10872;SDS011;34586;53.616;10.032;2023-08-31T07:10:43;7.90;;;2.43;;
10872;SDS011;34586;53.616;10.032;2023-08-31T07:13:08;7.17;;;2.60;;
10872;SDS011;34586;53.616;10.032;2023-08-31T07:15:34;3.23;;;2.10;;
10872;SDS011;34586;53.616;10.032;2023-08-31T07:17:59;4.20;;;2.30;;
10872;SDS011;34586;53.616;10.032;2023-08-31T07:20:25;4.03;;;2.03;;
10872;SDS011;34586;53.616;10.032;2023-08-31T07:22:51;3.93;;;1.93;;
10872;SDS011;34586;53.616;10.032;2023-08-31T07:25:16;3.33;;;1.57;;
10872;SDS011;34586;53.616;10.032;2023-08-31T07:27:42;3.80;;;1.60;;
10872;SDS011;34586;53.616;10.032;2023-08-31T07:30:08;5.10;;;2.07;;
10872;SDS011;34586;53.616;10.032;2023-08-31T07:32:35;5.30;;;1.60;;
10872;SDS011;34586;53.616;10.032;2023-08-31T07:35:00;2.33;;;1.47;;
10872;SDS011;34586;53.616;10.032;2023-08-31T07:37:28;2.67;;;1.70;;
10872;SDS011;34586;53.616;10.032;2023-08-31T07:39:53;2.60;;;1.30;;
10872;SDS011;34586;53.616;10.032;2023-08-31T07:42:19;3.13;;;1.50;;
10872;SDS011;34586;53.616;10.032;2023-08-31T07:44:45;3.07;;;1.53;;
10872;SDS011;34586;53.616;10.032;2023-08-31T07:47:10;3.37;;;1.47;;
10872;SDS011;34586;53.616;10.032;2023-08-31T07:49:36;3.03;;;1.17;;
10872;SDS011;34586;53.616;10.032;2023-08-31T07:52:01;3.60;;;1.20;;
10872;SDS011;34586;53.616;10.032;2023-08-31T07:54:28;3.80;;;1.47;;
10872;SDS011;34586;53.616;10.032;2023-08-31T07:56:53;3.03;;;1.17;;
10872;SDS011;34586;53.616;10.032;2023-08-31T07:59:19;1.87;;;1.20;;
10872;SDS011;34586;53.616;10.032;2023-08-31T08:01:45;4.03;;;1.37;;
10872;SDS011;34586;53.616;10.032;2023-08-31T08:04:11;6.60;;;1.63;;
10872;SDS011;34586;53.616;10.032;2023-08-31T08:06:37;5.17;;;1.50;;
10872;SDS011;34586;53.616;10.032;2023-08-31T08:09:03;2.77;;;0.93;;
10872;SDS011;34586;53.616;10.032;2023-08-31T08:11:29;2.33;;;1.00;;
10872;SDS011;34586;53.616;10.032;2023-08-31T08:13:55;4.13;;;1.33;;
10872;SDS011;34586;53.616;10.032;2023-08-31T08:16:21;3.30;;;1.20;;
10872;SDS011;34586;53.616;10.032;2023-08-31T08:18:46;3.90;;;1.37;;
10872;SDS011;34586;53.616;10.032;2023-08-31T08:21:12;2.60;;;1.43;;
10872;SDS011;34586;53.616;10.032;2023-08-31T08:23:38;5.00;;;2.00;;
10872;SDS011;34586;53.616;10.032;2023-08-31T08:26:03;3.27;;;1.77;;
10872;SDS011;34586;53.616;10.032;2023-08-31T08:28:29;2.43;;;1.57;;
10872;SDS011;34586;53.616;10.032;2023-08-31T08:30:54;1.17;;;1.00;;
10872;SDS011;34586;53.616;10.032;2023-08-31T08:33:21;4.23;;;1.40;;
10872;SDS011;34586;53.616;10.032;2023-08-31T08:35:47;2.07;;;1.27;;
10872;SDS011;34586;53.616;10.032;2023-08-31T08:38:12;3.27;;;1.27;;
10872;SDS011;34586;53.616;10.032;2023-08-31T08:40:38;1.80;;;1.20;;
10872;SDS011;34586;53.616;10.032;2023-08-31T08:43:05;3.33;;;1.23;;
10872;SDS011;34586;53.616;10.032;2023-08-31T08:45:36;2.30;;;1.30;;
10872;SDS011;34586;53.616;10.032;2023-08-31T08:48:04;2.90;;;1.23;;
10872;SDS011;34586;53.616;10.032;2023-08-31T08:50:32;2.53;;;1.27;;
10872;SDS011;34586;53.616;10.032;2023-08-31T08:52:59;3.33;;;1.20;;
10872;SDS011;34586;53.616;10.032;2023-08-31T08:55:26;2.50;;;1.10;;
10872;SDS011;34586;53.616;10.032;2023-08-31T08:57:52;3.47;;;1.50;;
10872;SDS011;34586;53.616;10.032;2023-08-31T09:00:18;3.80;;;1.23;;
10872;SDS011;34586;53.616;10.032;2023-08-31T09:02:44;2.73;;;1.10;;
10872;SDS011;34586;53.616;10.032;2023-08-31T09:05:10;1.83;;;1.40;;
10872;SDS011;34586;53.616;10.032;2023-08-31T09:07:36;2.13;;;1.40;;
10872;SDS011;34586;53.616;10.032;2023-08-31T09:10:02;2.60;;;1.37;;
10872;SDS011;34586;53.616;10.032;2023-08-31T09:12:29;2.23;;;1.33;;
10872;SDS011;34586;53.616;10.032;2023-08-31T09:15:02;4.57;;;1.43;;
10872;SDS011;34586;53.616;10.032;2023-08-31T09:17:41;2.37;;;1.60;;
10872;SDS011;34586;53.616;10.032;2023-08-31T09:20:09;2.63;;;1.70;;
10872;SDS011;34586;53.616;10.032;2023-08-31T09:22:35;4.27;;;2.20;;
10872;SDS011;34586;53.616;10.032;2023-08-31T09:25:01;3.83;;;1.77;;
10872;SDS011;34586;53.616;10.032;2023-08-31T09:27:28;3.33;;;1.70;;
10872;SDS011;34586;53.616;10.032;2023-08-31T09:29:56;4.37;;;1.47;;
10872;SDS011;34586;53.616;10.032;2023-08-31T09:32:22;3.40;;;1.50;;
10872;SDS011;34586;53.616;10.032;2023-08-31T09:34:48;3.70;;;1.80;;
10872;SDS011;34586;53.616;10.032;2023-08-31T09:37:15;3.40;;;1.63;;
10872;SDS011;34586;53.616;10.032;2023-08-31T09:39:41;4.60;;;2.00;;
10872;SDS011;34586;53.616;10.032;2023-08-31T09:42:07;3.07;;;2.10;;
10872;SDS011;34586;53.616;10.032;2023-08-31T09:44:33;3.83;;;2.13;;
10872;SDS011;34586;53.616;10.032;2023-08-31T09:46:59;3.87;;;2.00;;
10872;SDS011;34586;53.616;10.032;2023-08-31T09:49:25;2.10;;;1.90;;
10872;SDS011;34586;53.616;10.032;2023-08-31T09:51:52;3.97;;;1.50;;
10872;SDS011;34586;53.616;10.032;2023-08-31T09:54:18;5.77;;;2.20;;
10872;SDS011;34586;53.616;10.032;2023-08-31T09:56:46;4.13;;;1.70;;
10872;SDS011;34586;53.616;10.032;2023-08-31T09:59:13;4.00;;;1.80;;
10872;SDS011;34586;53.616;10.032;2023-08-31T10:01:41;4.83;;;2.20;;
10872;SDS011;34586;53.616;10.032;2023-08-31T10:04:08;3.63;;;2.00;;
10872;SDS011;34586;53.616;10.032;2023-08-31T10:06:34;6.23;;;1.77;;
10872;SDS011;34586;53.616;10.032;2023-08-31T10:09:01;2.83;;;1.83;;
10872;SDS011;34586;53.616;10.032;2023-08-31T10:11:28;3.73;;;1.70;;
10872;SDS011;34586;53.616;10.032;2023-08-31T10:13:54;2.53;;;1.40;;
10872;SDS011;34586;53.616;10.032;2023-08-31T10:16:21;2.60;;;1.33;;
10872;SDS011;34586;53.616;10.032;2023-08-31T10:18:47;4.20;;;1.60;;
10872;SDS011;34586;53.616;10.032;2023-08-31T10:21:17;2.63;;;1.20;;
10872;SDS011;34586;53.616;10.032;2023-08-31T10:23:47;1.27;;;1.03;;
10872;SDS011;34586;53.616;10.032;2023-08-31T10:26:32;4.07;;;1.40;;
10872;SDS011;34586;53.616;10.032;2023-08-31T10:28:58;3.20;;;1.40;;
10872;SDS011;34586;53.616;10.032;2023-08-31T10:31:28;2.53;;;1.90;;
10872;SDS011;34586;53.616;10.032;2023-08-31T10:34:02;3.43;;;1.77;;
10872;SDS011;34586;53.616;10.032;2023-08-31T10:39:21;2.17;;;1.57;;
10872;SDS011;34586;53.616;10.032;2023-08-31T10:41:53;2.07;;;1.57;;
10872;SDS011;34586;53.616;10.032;2023-08-31T10:44:23;2.93;;;1.67;;
10872;SDS011;34586;53.616;10.032;2023-08-31T10:46:51;2.50;;;1.33;;
10872;SDS011;34586;53.616;10.032;2023-08-31T10:49:18;1.97;;;1.30;;
10872;SDS011;34586;53.616;10.032;2023-08-31T10:51:49;4.53;;;1.60;;
10872;SDS011;34586;53.616;10.032;2023-08-31T10:54:24;2.93;;;1.50;;
10872;SDS011;34586;53.616;10.032;2023-08-31T10:59:22;2.40;;;1.50;;
10872;SDS011;34586;53.616;10.032;2023-08-31T11:04:21;1.70;;;1.30;;
10872;SDS011;34586;53.616;10.032;2023-08-31T11:06:47;2.80;;;1.20;;
10872;SDS011;34586;53.616;10.032;2023-08-31T11:09:18;4.87;;;1.10;;
10872;SDS011;34586;53.616;10.032;2023-08-31T11:11:44;3.07;;;1.40;;
10872;SDS011;34586;53.616;10.032;2023-08-31T11:14:10;1.47;;;1.10;;
10872;SDS011;34586;53.616;10.032;2023-08-31T11:16:37;1.37;;;0.90;;
10872;SDS011;34586;53.616;10.032;2023-08-31T11:19:03;1.27;;;0.90;;
10872;SDS011;34586;53.616;10.032;2023-08-31T11:21:30;3.97;;;0.93;;
10872;SDS011;34586;53.616;10.032;2023-08-31T11:23:58;2.67;;;1.10;;
10872;SDS011;34586;53.616;10.032;2023-08-31T11:26:25;2.03;;;0.83;;
10872;SDS011;34586;53.616;10.032;2023-08-31T11:28:51;1.13;;;0.90;;
10872;SDS011;34586;53.616;10.032;2023-08-31T11:31:23;1.97;;;1.00;;
10872;SDS011;34586;53.616;10.032;2023-08-31T11:33:49;3.97;;;0.90;;
10872;SDS011;34586;53.616;10.032;2023-08-31T11:36:15;0.90;;;0.80;;
10872;SDS011;34586;53.616;10.032;2023-08-31T11:38:43;2.00;;;0.80;;
10872;SDS011;34586;53.616;10.032;2023-08-31T11:41:09;1.97;;;0.80;;
10872;SDS011;34586;53.616;10.032;2023-08-31T11:43:35;1.90;;;0.60;;
10872;SDS011;34586;53.616;10.032;2023-08-31T11:46:02;0.87;;;0.53;;
10872;SDS011;34586;53.616;10.032;2023-08-31T11:48:29;2.17;;;0.73;;
10872;SDS011;34586;53.616;10.032;2023-08-31T11:50:55;1.57;;;0.47;;
10872;SDS011;34586;53.616;10.032;2023-08-31T11:53:21;1.03;;;0.70;;
10872;SDS011;34586;53.616;10.032;2023-08-31T11:55:50;2.63;;;0.60;;
10872;SDS011;34586;53.616;10.032;2023-08-31T11:58:17;0.50;;;0.50;;
10872;SDS011;34586;53.616;10.032;2023-08-31T12:00:43;0.60;;;0.50;;
10872;SDS011;34586;53.616;10.032;2023-08-31T12:03:09;2.07;;;0.60;;
10872;SDS011;34586;53.616;10.032;2023-08-31T12:05:44;2.77;;;0.50;;
10872;SDS011;34586;53.616;10.032;2023-08-31T12:08:14;3.10;;;0.50;;
10872;SDS011;34586;53.616;10.032;2023-08-31T12:10:41;0.53;;;0.40;;
10872;SDS011;34586;53.616;10.032;2023-08-31T12:13:10;1.27;;;0.50;;
10872;SDS011;34586;53.616;10.032;2023-08-31T12:15:37;0.83;;;0.40;;
10872;SDS011;34586;53.616;10.032;2023-08-31T12:18:10;1.17;;;0.73;;
10872;SDS011;34586;53.616;10.032;2023-08-31T12:20:44;1.70;;;0.50;;
10872;SDS011;34586;53.616;10.032;2023-08-31T12:23:11;0.70;;;0.47;;
10872;SDS011;34586;53.616;10.032;2023-08-31T12:25:36;2.03;;;0.60;;
10872;SDS011;34586;53.616;10.032;2023-08-31T12:28:02;2.90;;;0.60;;
10872;SDS011;34586;53.616;10.032;2023-08-31T12:30:28;1.80;;;0.50;;
10872;SDS011;34586;53.616;10.032;2023-08-31T12:32:54;1.53;;;0.53;;
10872;SDS011;34586;53.616;10.032;2023-08-31T12:35:20;1.07;;;0.40;;
10872;SDS011;34586;53.616;10.032;2023-08-31T12:37:46;1.27;;;0.47;;
10872;SDS011;34586;53.616;10.032;2023-08-31T12:40:11;2.80;;;0.80;;
10872;SDS011;34586;53.616;10.032;2023-08-31T12:42:37;1.03;;;0.50;;
10872;SDS011;34586;53.616;10.032;2023-08-31T12:45:03;0.40;;;0.40;;
10872;SDS011;34586;53.616;10.032;2023-08-31T12:47:30;0.40;;;0.40;;
10872;SDS011;34586;53.616;10.032;2023-08-31T12:49:56;1.20;;;0.50;;
10872;SDS011;34586;53.616;10.032;2023-08-31T12:52:22;0.50;;;0.47;;
10872;SDS011;34586;53.616;10.032;2023-08-31T12:54:49;0.67;;;0.40;;
10872;SDS011;34586;53.616;10.032;2023-08-31T12:57:14;0.53;;;0.40;;
10872;SDS011;34586;53.616;10.032;2023-08-31T12:59:40;1.87;;;0.40;;
10872;SDS011;34586;53.616;10.032;2023-08-31T13:02:07;0.40;;;0.30;;
10872;SDS011;34586;53.616;10.032;2023-08-31T13:04:35;0.50;;;0.50;;
10872;SDS011;34586;53.616;10.032;2023-08-31T13:07:01;1.40;;;0.30;;
10872;SDS011;34586;53.616;10.032;2023-08-31T13:09:26;0.40;;;0.40;;
10872;SDS011;34586;53.616;10.032;2023-08-31T13:11:53;0.70;;;0.40;;
10872;SDS011;34586;53.616;10.032;2023-08-31T13:14:18;1.43;;;0.40;;
10872;SDS011;34586;53.616;10.032;2023-08-31T13:16:44;1.90;;;0.50;;
10872;SDS011;34586;53.616;10.032;2023-08-31T13:19:09;2.63;;;0.37;;
10872;SDS011;34586;53.616;10.032;2023-08-31T13:21:35;0.80;;;0.60;;
10872;SDS011;34586;53.616;10.032;2023-08-31T13:24:01;1.67;;;0.40;;
10872;SDS011;34586;53.616;10.032;2023-08-31T13:26:26;0.70;;;0.37;;
10872;SDS011;34586;53.616;10.032;2023-08-31T13:28:52;0.73;;;0.50;;
10872;SDS011;34586;53.616;10.032;2023-08-31T13:31:17;0.67;;;0.33;;
10872;SDS011;34586;53.616;10.032;2023-08-31T13:33:43;0.33;;;0.20;;
10872;SDS011;34586;53.616;10.032;2023-08-31T13:36:09;0.40;;;0.40;;
10872;SDS011;34586;53.616;10.032;2023-08-31T13:38:34;0.87;;;0.30;;
10872;SDS011;34586;53.616;10.032;2023-08-31T13:41:00;1.43;;;0.40;;
10872;SDS011;34586;53.616;10.032;2023-08-31T13:43:26;0.70;;;0.50;;
10872;SDS011;34586;53.616;10.032;2023-08-31T13:45:51;0.73;;;0.50;;
10872;SDS011;34586;53.616;10.032;2023-08-31T13:48:17;1.53;;;0.53;;
10872;SDS011;34586;53.616;10.032;2023-08-31T13:50:43;1.63;;;0.50;;
10872;SDS011;34586;53.616;10.032;2023-08-31T13:53:11;0.40;;;0.23;;
10872;SDS011;34586;53.616;10.032;2023-08-31T13:55:37;0.63;;;0.30;;
10872;SDS011;34586;53.616;10.032;2023-08-31T13:58:05;2.67;;;0.67;;
10872;SDS011;34586;53.616;10.032;2023-08-31T14:00:32;0.77;;;0.40;;
10872;SDS011;34586;53.616;10.032;2023-08-31T14:02:58;1.47;;;0.60;;
10872;SDS011;34586;53.616;10.032;2023-08-31T14:05:28;0.73;;;0.50;;
10872;SDS011;34586;53.616;10.032;2023-08-31T14:07:57;1.23;;;0.60;;
10872;SDS011;34586;53.616;10.032;2023-08-31T14:10:23;1.13;;;0.50;;
10872;SDS011;34586;53.616;10.032;2023-08-31T14:12:49;0.40;;;0.30;;
10872;SDS011;34586;53.616;10.032;2023-08-31T14:15:15;0.60;;;0.57;;
10872;SDS011;34586;53.616;10.032;2023-08-31T14:17:41;0.60;;;0.40;;
10872;SDS011;34586;53.616;10.032;2023-08-31T14:20:07;1.50;;;0.60;;
10872;SDS011;34586;53.616;10.032;2023-08-31T14:22:34;2.73;;;0.50;;
10872;SDS011;34586;53.616;10.032;2023-08-31T14:25:00;0.40;;;0.30;;
10872;SDS011;34586;53.616;10.032;2023-08-31T14:27:26;0.93;;;0.50;;
10872;SDS011;34586;53.616;10.032;2023-08-31T14:29:52;2.47;;;0.40;;
10872;SDS011;34586;53.616;10.032;2023-08-31T14:32:18;4.10;;;0.60;;
10872;SDS011;34586;53.616;10.032;2023-08-31T14:34:44;1.37;;;0.40;;
10872;SDS011;34586;53.616;10.032;2023-08-31T14:37:09;0.97;;;0.53;;
10872;SDS011;34586;53.616;10.032;2023-08-31T14:39:35;1.13;;;0.80;;
10872;SDS011;34586;53.616;10.032;2023-08-31T14:42:01;1.63;;;0.60;;